sensor_id;sensor_type;location;lat;lon;timestamp;P1;durP1;ratioP1;P2;durP2;ratioP2
52586;SDS011;38480;52.724;6.436;2023-03-23T00:01:11;26.00;;;14.03;;
52586;SDS011;38480;52.724;6.436;2023-03-23T00:03:44;18.80;;;12.10;;
52586;SDS011;38480;52.724;6.436;2023-03-23T00:06:11;25.53;;;11.87;;
52586;SDS011;38480;52.724;6.436;2023-03-23T00:08:42;18.43;;;11.13;;
52586;SDS011;38480;52.724;6.436;2023-03-23T00:11:15;15.87;;;10.00;;
52586;SDS011;38480;52.724;6.436;2023-03-23T00:13:41;20.03;;;10.10;;
52586;SDS011;38480;52.724;6.436;2023-03-23T00:16:09;16.10;;;9.83;;
52586;SDS011;38480;52.724;6.436;2023-03-23T00:21:08;17.43;;;9.70;;
52586;SDS011;38480;52.724;6.436;2023-03-23T00:23:34;17.90;;;9.20;;
52586;SDS011;38480;52.724;6.436;2023-03-23T00:26:00;15.47;;;8.73;;
52586;SDS011;38480;52.724;6.436;2023-03-23T00:28:27;14.83;;;8.80;;
52586;SDS011;38480;52.724;6.436;2023-03-23T00:31:03;16.70;;;8.70;;
52586;SDS011;38480;52.724;6.436;2023-03-23T00:33:34;13.77;;;8.80;;
52586;SDS011;38480;52.724;6.436;2023-03-23T00:36:06;16.77;;;8.00;;
52586;SDS011;38480;52.724;6.436;2023-03-23T00:38:33;14.80;;;8.67;;
52586;SDS011;38480;52.724;6.436;2023-03-23T00:41:00;14.00;;;8.87;;
52586;SDS011;38480;52.724;6.436;2023-03-23T00:43:27;15.77;;;8.50;;
52586;SDS011;38480;52.724;6.436;2023-03-23T00:45:54;12.80;;;7.63;;
52586;SDS011;38480;52.724;6.436;2023-03-23T00:48:20;10.30;;;6.73;;
52586;SDS011;38480;52.724;6.436;2023-03-23T00:50:46;12.00;;;6.97;;
52586;SDS011;38480;52.724;6.436;2023-03-23T00:53:13;10.13;;;5.83;;
52586;SDS011;38480;52.724;6.436;2023-03-23T00:55:42;10.50;;;5.17;;
52586;SDS011;38480;52.724;6.436;2023-03-23T00:58:09;8.57;;;5.30;;
52586;SDS011;38480;52.724;6.436;2023-03-23T01:00:36;11.70;;;4.67;;
52586;SDS011;38480;52.724;6.436;2023-03-23T01:03:02;7.80;;;5.13;;
52586;SDS011;38480;52.724;6.436;2023-03-23T01:05:29;8.83;;;5.10;;
52586;SDS011;38480;52.724;6.436;2023-03-23T01:07:59;10.83;;;5.23;;
52586;SDS011;38480;52.724;6.436;2023-03-23T01:10:26;11.43;;;5.47;;
52586;SDS011;38480;52.724;6.436;2023-03-23T01:12:53;10.07;;;5.47;;
52586;SDS011;38480;52.724;6.436;2023-03-23T01:15:19;10.97;;;5.30;;
52586;SDS011;38480;52.724;6.436;2023-03-23T01:17:46;9.80;;;4.20;;
52586;SDS011;38480;52.724;6.436;2023-03-23T01:20:12;5.27;;;3.70;;
52586;SDS011;38480;52.724;6.436;2023-03-23T01:22:40;8.77;;;3.57;;
52586;SDS011;38480;52.724;6.436;2023-03-23T01:25:06;10.97;;;4.67;;
52586;SDS011;38480;52.724;6.436;2023-03-23T01:27:33;8.87;;;4.13;;
52586;SDS011;38480;52.724;6.436;2023-03-23T01:29:59;8.07;;;4.00;;
52586;SDS011;38480;52.724;6.436;2023-03-23T01:32:25;10.53;;;4.07;;
52586;SDS011;38480;52.724;6.436;2023-03-23T01:34:51;8.07;;;4.60;;
52586;SDS011;38480;52.724;6.436;2023-03-23T01:37:19;7.93;;;4.57;;
52586;SDS011;38480;52.724;6.436;2023-03-23T01:39:45;9.13;;;4.33;;
52586;SDS011;38480;52.724;6.436;2023-03-23T01:42:11;7.83;;;4.53;;
52586;SDS011;38480;52.724;6.436;2023-03-23T01:47:03;8.90;;;4.83;;
52586;SDS011;38480;52.724;6.436;2023-03-23T01:49:34;9.70;;;4.10;;
52586;SDS011;38480;52.724;6.436;2023-03-23T01:52:02;7.70;;;4.07;;
52586;SDS011;38480;52.724;6.436;2023-03-23T01:54:30;7.97;;;4.00;;
52586;SDS011;38480;52.724;6.436;2023-03-23T01:56:58;8.40;;;4.23;;
52586;SDS011;38480;52.724;6.436;2023-03-23T01:59:25;8.47;;;3.50;;
52586;SDS011;38480;52.724;6.436;2023-03-23T02:01:52;10.07;;;4.07;;
52586;SDS011;38480;52.724;6.436;2023-03-23T02:04:19;8.70;;;4.30;;
52586;SDS011;38480;52.724;6.436;2023-03-23T02:06:46;5.47;;;3.67;;
52586;SDS011;38480;52.724;6.436;2023-03-23T02:09:13;7.93;;;3.57;;
52586;SDS011;38480;52.724;6.436;2023-03-23T02:11:42;8.60;;;4.17;;
52586;SDS011;38480;52.724;6.436;2023-03-23T02:14:08;6.10;;;3.70;;
52586;SDS011;38480;52.724;6.436;2023-03-23T02:16:44;8.37;;;4.00;;
52586;SDS011;38480;52.724;6.436;2023-03-23T02:19:37;8.73;;;4.47;;
52586;SDS011;38480;52.724;6.436;2023-03-23T02:22:22;8.30;;;3.73;;
52586;SDS011;38480;52.724;6.436;2023-03-23T02:35:35;7.10;;;3.13;;
52586;SDS011;38480;52.724;6.436;2023-03-23T02:38:06;4.90;;;3.07;;
52586;SDS011;38480;52.724;6.436;2023-03-23T02:40:41;7.77;;;3.00;;
52586;SDS011;38480;52.724;6.436;2023-03-23T02:43:09;6.20;;;2.65;;
52586;SDS011;38480;52.724;6.436;2023-03-23T02:45:36;7.53;;;3.53;;
52586;SDS011;38480;52.724;6.436;2023-03-23T02:48:03;11.53;;;3.37;;
52586;SDS011;38480;52.724;6.436;2023-03-23T02:50:29;6.10;;;3.10;;
52586;SDS011;38480;52.724;6.436;2023-03-23T02:52:56;8.03;;;3.00;;
52586;SDS011;38480;52.724;6.436;2023-03-23T02:55:24;9.47;;;3.20;;
52586;SDS011;38480;52.724;6.436;2023-03-23T02:57:51;7.37;;;3.37;;
52586;SDS011;38480;52.724;6.436;2023-03-23T03:00:18;7.87;;;3.90;;
52586;SDS011;38480;52.724;6.436;2023-03-23T03:02:51;7.27;;;3.40;;
52586;SDS011;38480;52.724;6.436;2023-03-23T03:07:54;10.27;;;4.13;;
52586;SDS011;38480;52.724;6.436;2023-03-23T03:10:24;5.63;;;3.13;;
52586;SDS011;38480;52.724;6.436;2023-03-23T03:15:25;9.47;;;3.80;;
52586;SDS011;38480;52.724;6.436;2023-03-23T03:18:04;8.93;;;4.30;;
52586;SDS011;38480;52.724;6.436;2023-03-23T03:20:31;6.73;;;4.00;;
52586;SDS011;38480;52.724;6.436;2023-03-23T03:22:58;7.57;;;3.87;;
52586;SDS011;38480;52.724;6.436;2023-03-23T03:25:24;6.53;;;3.53;;
52586;SDS011;38480;52.724;6.436;2023-03-23T03:27:52;6.40;;;3.60;;
52586;SDS011;38480;52.724;6.436;2023-03-23T03:30:20;6.07;;;3.77;;
52586;SDS011;38480;52.724;6.436;2023-03-23T03:32:47;7.70;;;3.63;;
52586;SDS011;38480;52.724;6.436;2023-03-23T03:35:16;5.40;;;3.83;;
52586;SDS011;38480;52.724;6.436;2023-03-23T03:37:42;6.80;;;4.20;;
52586;SDS011;38480;52.724;6.436;2023-03-23T03:40:10;4.90;;;3.73;;
52586;SDS011;38480;52.724;6.436;2023-03-23T03:42:41;7.87;;;3.60;;
52586;SDS011;38480;52.724;6.436;2023-03-23T03:45:07;8.03;;;3.90;;
52586;SDS011;38480;52.724;6.436;2023-03-23T03:47:34;9.50;;;4.07;;
52586;SDS011;38480;52.724;6.436;2023-03-23T03:50:00;9.70;;;4.27;;
52586;SDS011;38480;52.724;6.436;2023-03-23T03:52:26;9.60;;;4.07;;
52586;SDS011;38480;52.724;6.436;2023-03-23T03:54:53;6.43;;;4.07;;
52586;SDS011;38480;52.724;6.436;2023-03-23T03:57:20;8.43;;;4.23;;
52586;SDS011;38480;52.724;6.436;2023-03-23T03:59:46;7.70;;;4.43;;
52586;SDS011;38480;52.724;6.436;2023-03-23T04:02:12;7.03;;;3.87;;
52586;SDS011;38480;52.724;6.436;2023-03-23T04:04:41;8.53;;;4.60;;
52586;SDS011;38480;52.724;6.436;2023-03-23T04:07:08;9.60;;;3.70;;
52586;SDS011;38480;52.724;6.436;2023-03-23T04:09:36;6.40;;;3.83;;
52586;SDS011;38480;52.724;6.436;2023-03-23T04:12:03;10.47;;;3.90;;
52586;SDS011;38480;52.724;6.436;2023-03-23T04:14:29;7.10;;;4.00;;
52586;SDS011;38480;52.724;6.436;2023-03-23T04:16:56;7.27;;;3.80;;
52586;SDS011;38480;52.724;6.436;2023-03-23T04:19:24;10.40;;;4.60;;
52586;SDS011;38480;52.724;6.436;2023-03-23T04:21:50;10.30;;;5.10;;
52586;SDS011;38480;52.724;6.436;2023-03-23T04:24:16;11.30;;;4.70;;
52586;SDS011;38480;52.724;6.436;2023-03-23T04:26:46;9.23;;;5.03;;
52586;SDS011;38480;52.724;6.436;2023-03-23T04:29:12;8.87;;;4.33;;
52586;SDS011;38480;52.724;6.436;2023-03-23T04:31:38;9.57;;;4.70;;
52586;SDS011;38480;52.724;6.436;2023-03-23T04:34:05;7.57;;;4.80;;
52586;SDS011;38480;52.724;6.436;2023-03-23T04:36:31;7.83;;;4.73;;
52586;SDS011;38480;52.724;6.436;2023-03-23T04:39:00;11.47;;;5.47;;
52586;SDS011;38480;52.724;6.436;2023-03-23T04:41:28;9.10;;;5.63;;
52586;SDS011;38480;52.724;6.436;2023-03-23T04:43:54;8.23;;;4.40;;
52586;SDS011;38480;52.724;6.436;2023-03-23T04:46:21;11.70;;;5.10;;
52586;SDS011;38480;52.724;6.436;2023-03-23T04:48:47;10.23;;;6.03;;
52586;SDS011;38480;52.724;6.436;2023-03-23T04:51:14;19.10;;;6.40;;
52586;SDS011;38480;52.724;6.436;2023-03-23T04:53:40;13.03;;;6.90;;
52586;SDS011;38480;52.724;6.436;2023-03-23T04:56:06;19.73;;;7.83;;
52586;SDS011;38480;52.724;6.436;2023-03-23T04:58:32;15.97;;;8.73;;
52586;SDS011;38480;52.724;6.436;2023-03-23T05:00:59;24.23;;;9.07;;
52586;SDS011;38480;52.724;6.436;2023-03-23T05:03:25;43.43;;;11.17;;
52586;SDS011;38480;52.724;6.436;2023-03-23T05:05:52;57.33;;;11.33;;
52586;SDS011;38480;52.724;6.436;2023-03-23T05:08:22;51.73;;;13.07;;
52586;SDS011;38480;52.724;6.436;2023-03-23T05:10:52;23.17;;;9.33;;
52586;SDS011;38480;52.724;6.436;2023-03-23T05:13:21;11.73;;;5.33;;
52586;SDS011;38480;52.724;6.436;2023-03-23T05:15:47;12.70;;;6.67;;
52586;SDS011;38480;52.724;6.436;2023-03-23T05:18:13;13.73;;;7.10;;
52586;SDS011;38480;52.724;6.436;2023-03-23T05:20:39;17.53;;;6.80;;
52586;SDS011;38480;52.724;6.436;2023-03-23T05:23:07;15.00;;;5.87;;
52586;SDS011;38480;52.724;6.436;2023-03-23T05:25:33;12.57;;;5.60;;
52586;SDS011;38480;52.724;6.436;2023-03-23T05:28:02;15.57;;;6.30;;
52586;SDS011;38480;52.724;6.436;2023-03-23T05:30:28;19.00;;;7.17;;
52586;SDS011;38480;52.724;6.436;2023-03-23T05:32:54;15.57;;;6.03;;
52586;SDS011;38480;52.724;6.436;2023-03-23T05:35:21;12.20;;;5.07;;
52586;SDS011;38480;52.724;6.436;2023-03-23T05:37:47;11.70;;;5.07;;
52586;SDS011;38480;52.724;6.436;2023-03-23T05:40:13;17.23;;;6.50;;
52586;SDS011;38480;52.724;6.436;2023-03-23T05:42:40;13.87;;;4.67;;
52586;SDS011;38480;52.724;6.436;2023-03-23T05:45:07;10.67;;;4.23;;
52586;SDS011;38480;52.724;6.436;2023-03-23T05:47:33;9.27;;;4.43;;
52586;SDS011;38480;52.724;6.436;2023-03-23T05:50:00;12.50;;;4.03;;
52586;SDS011;38480;52.724;6.436;2023-03-23T05:52:26;10.57;;;3.83;;
52586;SDS011;38480;52.724;6.436;2023-03-23T05:54:52;9.73;;;3.30;;
52586;SDS011;38480;52.724;6.436;2023-03-23T05:57:18;9.27;;;3.40;;
52586;SDS011;38480;52.724;6.436;2023-03-23T05:59:48;11.00;;;3.23;;
52586;SDS011;38480;52.724;6.436;2023-03-23T06:02:14;9.57;;;3.50;;
52586;SDS011;38480;52.724;6.436;2023-03-23T06:04:40;9.23;;;3.67;;
52586;SDS011;38480;52.724;6.436;2023-03-23T06:07:07;12.07;;;3.70;;
52586;SDS011;38480;52.724;6.436;2023-03-23T06:09:33;9.00;;;2.80;;
52586;SDS011;38480;52.724;6.436;2023-03-23T06:11:59;10.97;;;3.80;;
52586;SDS011;38480;52.724;6.436;2023-03-23T06:14:25;10.20;;;3.10;;
52586;SDS011;38480;52.724;6.436;2023-03-23T06:16:51;18.03;;;4.70;;
52586;SDS011;38480;52.724;6.436;2023-03-23T06:19:17;10.30;;;3.00;;
52586;SDS011;38480;52.724;6.436;2023-03-23T06:21:43;9.50;;;3.80;;
52586;SDS011;38480;52.724;6.436;2023-03-23T06:24:09;15.17;;;3.93;;
52586;SDS011;38480;52.724;6.436;2023-03-23T06:26:37;18.10;;;4.57;;
52586;SDS011;38480;52.724;6.436;2023-03-23T06:29:03;10.57;;;4.40;;
52586;SDS011;38480;52.724;6.436;2023-03-23T06:31:46;14.48;;;4.60;;
52586;SDS011;38480;52.724;6.436;2023-03-23T06:34:13;18.17;;;4.97;;
52586;SDS011;38480;52.724;6.436;2023-03-23T06:36:39;18.70;;;5.53;;
52586;SDS011;38480;52.724;6.436;2023-03-23T06:39:05;14.30;;;4.63;;
52586;SDS011;38480;52.724;6.436;2023-03-23T06:41:32;15.67;;;4.60;;
52586;SDS011;38480;52.724;6.436;2023-03-23T06:43:58;18.53;;;6.30;;
52586;SDS011;38480;52.724;6.436;2023-03-23T06:46:24;17.90;;;5.57;;
52586;SDS011;38480;52.724;6.436;2023-03-23T06:48:50;15.27;;;4.23;;
52586;SDS011;38480;52.724;6.436;2023-03-23T06:51:17;15.07;;;4.30;;
52586;SDS011;38480;52.724;6.436;2023-03-23T06:53:43;20.47;;;6.30;;
52586;SDS011;38480;52.724;6.436;2023-03-23T06:56:10;19.27;;;5.43;;
52586;SDS011;38480;52.724;6.436;2023-03-23T06:58:37;20.50;;;5.60;;
52586;SDS011;38480;52.724;6.436;2023-03-23T07:01:04;16.67;;;5.87;;
52586;SDS011;38480;52.724;6.436;2023-03-23T07:03:30;21.03;;;5.53;;
52586;SDS011;38480;52.724;6.436;2023-03-23T07:05:56;23.47;;;5.47;;
52586;SDS011;38480;52.724;6.436;2023-03-23T07:08:23;15.70;;;4.80;;
52586;SDS011;38480;52.724;6.436;2023-03-23T07:10:53;18.97;;;5.60;;
52586;SDS011;38480;52.724;6.436;2023-03-23T07:13:20;18.83;;;6.50;;
52586;SDS011;38480;52.724;6.436;2023-03-23T07:15:46;19.37;;;4.67;;
52586;SDS011;38480;52.724;6.436;2023-03-23T07:18:13;12.80;;;4.47;;
52586;SDS011;38480;52.724;6.436;2023-03-23T07:20:39;17.80;;;5.17;;
52586;SDS011;38480;52.724;6.436;2023-03-23T07:23:05;14.13;;;4.50;;
52586;SDS011;38480;52.724;6.436;2023-03-23T07:25:32;18.67;;;4.53;;
52586;SDS011;38480;52.724;6.436;2023-03-23T07:28:02;15.30;;;4.17;;
52586;SDS011;38480;52.724;6.436;2023-03-23T07:30:28;16.93;;;4.83;;
52586;SDS011;38480;52.724;6.436;2023-03-23T07:32:55;15.87;;;4.67;;
52586;SDS011;38480;52.724;6.436;2023-03-23T07:35:22;16.67;;;3.77;;
52586;SDS011;38480;52.724;6.436;2023-03-23T07:37:48;13.00;;;3.43;;
52586;SDS011;38480;52.724;6.436;2023-03-23T07:40:14;10.50;;;3.33;;
52586;SDS011;38480;52.724;6.436;2023-03-23T07:42:41;15.37;;;3.70;;
52586;SDS011;38480;52.724;6.436;2023-03-23T07:45:09;16.93;;;4.23;;
52586;SDS011;38480;52.724;6.436;2023-03-23T07:47:35;15.10;;;3.10;;
52586;SDS011;38480;52.724;6.436;2023-03-23T07:50:01;17.07;;;5.13;;
52586;SDS011;38480;52.724;6.436;2023-03-23T07:52:27;22.27;;;4.07;;
52586;SDS011;38480;52.724;6.436;2023-03-23T07:54:55;16.60;;;4.67;;
52586;SDS011;38480;52.724;6.436;2023-03-23T07:57:21;18.60;;;4.83;;
52586;SDS011;38480;52.724;6.436;2023-03-23T07:59:47;22.07;;;5.43;;
52586;SDS011;38480;52.724;6.436;2023-03-23T08:02:13;23.27;;;5.20;;
52586;SDS011;38480;52.724;6.436;2023-03-23T08:04:40;22.97;;;5.50;;
52586;SDS011;38480;52.724;6.436;2023-03-23T08:07:07;17.23;;;5.03;;
52586;SDS011;38480;52.724;6.436;2023-03-23T08:09:37;19.47;;;6.30;;
52586;SDS011;38480;52.724;6.436;2023-03-23T08:12:04;25.17;;;5.07;;
52586;SDS011;38480;52.724;6.436;2023-03-23T08:14:30;20.57;;;4.73;;
52586;SDS011;38480;52.724;6.436;2023-03-23T08:16:56;25.77;;;4.80;;
52586;SDS011;38480;52.724;6.436;2023-03-23T08:19:22;22.13;;;4.97;;
52586;SDS011;38480;52.724;6.436;2023-03-23T08:21:49;22.47;;;4.97;;
52586;SDS011;38480;52.724;6.436;2023-03-23T08:24:15;24.97;;;6.17;;
52586;SDS011;38480;52.724;6.436;2023-03-23T08:26:41;21.17;;;6.03;;
52586;SDS011;38480;52.724;6.436;2023-03-23T08:29:07;14.50;;;5.67;;
52586;SDS011;38480;52.724;6.436;2023-03-23T08:31:34;18.50;;;5.10;;
52586;SDS011;38480;52.724;6.436;2023-03-23T08:34:02;21.63;;;5.27;;
52586;SDS011;38480;52.724;6.436;2023-03-23T08:36:29;20.53;;;4.73;;
52586;SDS011;38480;52.724;6.436;2023-03-23T08:38:56;13.27;;;4.23;;
52586;SDS011;38480;52.724;6.436;2023-03-23T08:41:23;21.50;;;5.10;;
52586;SDS011;38480;52.724;6.436;2023-03-23T08:43:50;20.77;;;6.07;;
52586;SDS011;38480;52.724;6.436;2023-03-23T08:46:17;19.93;;;5.03;;
52586;SDS011;38480;52.724;6.436;2023-03-23T08:48:44;23.50;;;5.87;;
52586;SDS011;38480;52.724;6.436;2023-03-23T08:51:10;20.60;;;5.00;;
52586;SDS011;38480;52.724;6.436;2023-03-23T08:53:37;19.03;;;4.70;;
52586;SDS011;38480;52.724;6.436;2023-03-23T08:56:05;21.87;;;6.90;;
52586;SDS011;38480;52.724;6.436;2023-03-23T08:58:31;22.53;;;4.93;;
52586;SDS011;38480;52.724;6.436;2023-03-23T09:00:58;20.00;;;4.90;;
52586;SDS011;38480;52.724;6.436;2023-03-23T09:03:25;19.53;;;5.27;;
52586;SDS011;38480;52.724;6.436;2023-03-23T09:05:51;30.53;;;5.70;;
52586;SDS011;38480;52.724;6.436;2023-03-23T09:08:18;19.73;;;5.53;;
52586;SDS011;38480;52.724;6.436;2023-03-23T09:10:45;17.33;;;4.17;;
52586;SDS011;38480;52.724;6.436;2023-03-23T09:13:11;17.67;;;4.80;;
52586;SDS011;38480;52.724;6.436;2023-03-23T09:15:37;23.83;;;5.17;;
52586;SDS011;38480;52.724;6.436;2023-03-23T09:18:03;16.13;;;4.83;;
52586;SDS011;38480;52.724;6.436;2023-03-23T09:20:29;18.43;;;4.90;;
52586;SDS011;38480;52.724;6.436;2023-03-23T09:22:56;19.83;;;5.70;;
52586;SDS011;38480;52.724;6.436;2023-03-23T09:25:23;19.07;;;5.13;;
52586;SDS011;38480;52.724;6.436;2023-03-23T09:27:51;17.83;;;6.10;;
52586;SDS011;38480;52.724;6.436;2023-03-23T09:30:20;13.57;;;4.27;;
52586;SDS011;38480;52.724;6.436;2023-03-23T09:32:46;14.53;;;4.37;;
52586;SDS011;38480;52.724;6.436;2023-03-23T09:35:13;13.13;;;3.13;;
52586;SDS011;38480;52.724;6.436;2023-03-23T09:37:41;17.77;;;3.63;;
52586;SDS011;38480;52.724;6.436;2023-03-23T09:42:57;16.53;;;4.87;;
52586;SDS011;38480;52.724;6.436;2023-03-23T09:45:38;15.13;;;4.03;;
52586;SDS011;38480;52.724;6.436;2023-03-23T09:50:52;14.43;;;3.57;;
52586;SDS011;38480;52.724;6.436;2023-03-23T09:56:21;15.57;;;3.87;;
52586;SDS011;38480;52.724;6.436;2023-03-23T09:58:53;11.83;;;3.37;;
52586;SDS011;38480;52.724;6.436;2023-03-23T10:03:48;15.20;;;3.17;;
52586;SDS011;38480;52.724;6.436;2023-03-23T10:06:17;8.53;;;3.10;;
52586;SDS011;38480;52.724;6.436;2023-03-23T10:08:45;11.83;;;4.73;;
52586;SDS011;38480;52.724;6.436;2023-03-23T10:16:04;8.37;;;2.47;;
52586;SDS011;38480;52.724;6.436;2023-03-23T10:18:37;10.50;;;3.03;;
52586;SDS011;38480;52.724;6.436;2023-03-23T10:21:04;9.83;;;3.00;;
52586;SDS011;38480;52.724;6.436;2023-03-23T10:23:51;10.97;;;3.07;;
52586;SDS011;38480;52.724;6.436;2023-03-23T10:28:51;10.70;;;2.93;;
52586;SDS011;38480;52.724;6.436;2023-03-23T10:31:24;10.53;;;3.43;;
52586;SDS011;38480;52.724;6.436;2023-03-23T10:33:57;8.90;;;2.78;;
52586;SDS011;38480;52.724;6.436;2023-03-23T10:41:20;15.30;;;2.70;;
52586;SDS011;38480;52.724;6.436;2023-03-23T10:43:47;12.03;;;2.70;;
52586;SDS011;38480;52.724;6.436;2023-03-23T10:48:41;16.23;;;3.43;;
52586;SDS011;38480;52.724;6.436;2023-03-23T10:51:10;11.77;;;2.87;;
52586;SDS011;38480;52.724;6.436;2023-03-23T10:53:59;15.03;;;2.63;;
52586;SDS011;38480;52.724;6.436;2023-03-23T10:56:25;12.77;;;2.70;;
52586;SDS011;38480;52.724;6.436;2023-03-23T10:58:52;12.20;;;3.20;;
52586;SDS011;38480;52.724;6.436;2023-03-23T11:01:19;14.83;;;2.70;;
52586;SDS011;38480;52.724;6.436;2023-03-23T11:03:47;12.07;;;2.77;;
52586;SDS011;38480;52.724;6.436;2023-03-23T11:06:24;16.50;;;3.70;;
52586;SDS011;38480;52.724;6.436;2023-03-23T11:08:55;11.70;;;2.63;;
52586;SDS011;38480;52.724;6.436;2023-03-23T11:11:25;15.30;;;2.63;;
52586;SDS011;38480;52.724;6.436;2023-03-23T11:13:57;11.00;;;2.80;;
52586;SDS011;38480;52.724;6.436;2023-03-23T11:16:31;12.23;;;3.30;;
52586;SDS011;38480;52.724;6.436;2023-03-23T11:18:58;12.30;;;2.80;;
52586;SDS011;38480;52.724;6.436;2023-03-23T11:21:25;16.53;;;3.53;;
52586;SDS011;38480;52.724;6.436;2023-03-23T11:23:53;12.40;;;3.20;;
52586;SDS011;38480;52.724;6.436;2023-03-23T11:26:27;9.77;;;3.33;;
52586;SDS011;38480;52.724;6.436;2023-03-23T11:28:58;9.97;;;2.93;;
52586;SDS011;38480;52.724;6.436;2023-03-23T11:31:29;11.83;;;3.07;;
52586;SDS011;38480;52.724;6.436;2023-03-23T11:33:57;10.43;;;2.60;;
52586;SDS011;38480;52.724;6.436;2023-03-23T11:36:29;11.97;;;3.00;;
52586;SDS011;38480;52.724;6.436;2023-03-23T11:38:56;10.97;;;2.83;;
52586;SDS011;38480;52.724;6.436;2023-03-23T11:41:22;9.90;;;2.53;;
52586;SDS011;38480;52.724;6.436;2023-03-23T11:43:51;10.73;;;2.33;;
52586;SDS011;38480;52.724;6.436;2023-03-23T11:49:03;9.03;;;2.73;;
52586;SDS011;38480;52.724;6.436;2023-03-23T11:56:24;11.97;;;4.60;;
52586;SDS011;38480;52.724;6.436;2023-03-23T11:58:52;14.77;;;3.40;;
52586;SDS011;38480;52.724;6.436;2023-03-23T12:12:14;10.67;;;2.40;;
52586;SDS011;38480;52.724;6.436;2023-03-23T12:23:41;11.77;;;3.13;;
52586;SDS011;38480;52.724;6.436;2023-03-23T12:25:38;12.07;;;3.27;;
52586;SDS011;38480;52.724;6.436;2023-03-23T12:44:13;15.10;;;3.27;;
52586;SDS011;38480;52.724;6.436;2023-03-23T12:57:05;9.63;;;3.63;;
52586;SDS011;38480;52.724;6.436;2023-03-23T13:02:09;9.23;;;2.50;;
52586;SDS011;38480;52.724;6.436;2023-03-23T13:04:38;10.13;;;2.87;;
52586;SDS011;38480;52.724;6.436;2023-03-23T13:07:05;10.67;;;2.50;;
52586;SDS011;38480;52.724;6.436;2023-03-23T13:12:18;11.70;;;3.00;;
52586;SDS011;38480;52.724;6.436;2023-03-23T13:28:01;9.07;;;2.57;;
52586;SDS011;38480;52.724;6.436;2023-03-23T13:30:28;9.90;;;2.23;;
52586;SDS011;38480;52.724;6.436;2023-03-23T13:33:01;9.40;;;3.03;;
52586;SDS011;38480;52.724;6.436;2023-03-23T13:35:33;13.23;;;2.77;;
52586;SDS011;38480;52.724;6.436;2023-03-23T13:38:00;13.43;;;2.83;;
52586;SDS011;38480;52.724;6.436;2023-03-23T13:40:29;7.63;;;2.70;;
52586;SDS011;38480;52.724;6.436;2023-03-23T13:43:00;13.87;;;3.60;;
52586;SDS011;38480;52.724;6.436;2023-03-23T13:50:52;11.07;;;3.20;;
52586;SDS011;38480;52.724;6.436;2023-03-23T13:53:43;12.27;;;3.53;;
52586;SDS011;38480;52.724;6.436;2023-03-23T13:56:16;14.23;;;3.10;;
52586;SDS011;38480;52.724;6.436;2023-03-23T13:58:44;17.93;;;3.17;;
52586;SDS011;38480;52.724;6.436;2023-03-23T14:01:13;13.07;;;2.80;;
52586;SDS011;38480;52.724;6.436;2023-03-23T14:03:41;9.30;;;2.10;;
52586;SDS011;38480;52.724;6.436;2023-03-23T14:06:18;12.97;;;3.00;;
52586;SDS011;38480;52.724;6.436;2023-03-23T14:08:47;11.70;;;2.73;;
52586;SDS011;38480;52.724;6.436;2023-03-23T14:11:15;9.87;;;2.30;;
52586;SDS011;38480;52.724;6.436;2023-03-23T14:13:47;9.40;;;2.20;;
52586;SDS011;38480;52.724;6.436;2023-03-23T14:16:17;5.97;;;1.93;;
52586;SDS011;38480;52.724;6.436;2023-03-23T14:18:51;8.57;;;1.90;;
52586;SDS011;38480;52.724;6.436;2023-03-23T14:21:22;10.33;;;2.50;;
52586;SDS011;38480;52.724;6.436;2023-03-23T14:23:48;7.53;;;1.90;;
52586;SDS011;38480;52.724;6.436;2023-03-23T14:26:16;12.37;;;3.67;;
52586;SDS011;38480;52.724;6.436;2023-03-23T14:28:44;10.63;;;2.40;;
52586;SDS011;38480;52.724;6.436;2023-03-23T14:31:18;13.07;;;2.90;;
52586;SDS011;38480;52.724;6.436;2023-03-23T14:33:45;11.67;;;3.30;;
52586;SDS011;38480;52.724;6.436;2023-03-23T14:36:13;8.60;;;2.33;;
52586;SDS011;38480;52.724;6.436;2023-03-23T14:38:40;9.13;;;2.27;;
52586;SDS011;38480;52.724;6.436;2023-03-23T14:41:06;9.50;;;2.67;;
52586;SDS011;38480;52.724;6.436;2023-03-23T14:43:33;8.80;;;3.23;;
52586;SDS011;38480;52.724;6.436;2023-03-23T14:46:00;11.47;;;2.97;;
52586;SDS011;38480;52.724;6.436;2023-03-23T14:48:27;10.43;;;2.70;;
52586;SDS011;38480;52.724;6.436;2023-03-23T14:50:58;9.63;;;2.23;;
52586;SDS011;38480;52.724;6.436;2023-03-23T14:53:37;12.18;;;2.90;;
52586;SDS011;38480;52.724;6.436;2023-03-23T14:56:09;10.40;;;3.17;;
52586;SDS011;38480;52.724;6.436;2023-03-23T14:58:36;11.13;;;3.13;;
52586;SDS011;38480;52.724;6.436;2023-03-23T15:03:31;12.40;;;3.57;;
52586;SDS011;38480;52.724;6.436;2023-03-23T15:06:00;12.30;;;2.73;;
52586;SDS011;38480;52.724;6.436;2023-03-23T15:08:32;13.20;;;2.67;;
52586;SDS011;38480;52.724;6.436;2023-03-23T15:11:11;13.43;;;4.10;;
52586;SDS011;38480;52.724;6.436;2023-03-23T15:13:41;10.87;;;3.17;;
52586;SDS011;38480;52.724;6.436;2023-03-23T15:16:29;13.73;;;3.60;;
52586;SDS011;38480;52.724;6.436;2023-03-23T15:19:00;9.97;;;3.03;;
52586;SDS011;38480;52.724;6.436;2023-03-23T15:23:54;11.40;;;4.27;;
52586;SDS011;38480;52.724;6.436;2023-03-23T15:29:10;14.13;;;2.60;;
52586;SDS011;38480;52.724;6.436;2023-03-23T15:31:41;10.77;;;3.07;;
52586;SDS011;38480;52.724;6.436;2023-03-23T15:34:10;10.20;;;2.63;;
52586;SDS011;38480;52.724;6.436;2023-03-23T15:36:37;9.93;;;2.70;;
52586;SDS011;38480;52.724;6.436;2023-03-23T15:39:03;11.57;;;2.80;;
52586;SDS011;38480;52.724;6.436;2023-03-23T15:41:32;10.40;;;2.17;;
52586;SDS011;38480;52.724;6.436;2023-03-23T15:44:08;9.60;;;2.90;;
52586;SDS011;38480;52.724;6.436;2023-03-23T15:46:35;8.90;;;2.70;;
52586;SDS011;38480;52.724;6.436;2023-03-23T15:51:28;11.10;;;3.10;;
52586;SDS011;38480;52.724;6.436;2023-03-23T15:53:55;11.10;;;3.10;;
52586;SDS011;38480;52.724;6.436;2023-03-23T15:56:21;11.33;;;3.10;;
52586;SDS011;38480;52.724;6.436;2023-03-23T15:58:48;9.80;;;2.60;;
52586;SDS011;38480;52.724;6.436;2023-03-23T16:01:15;13.40;;;3.53;;
52586;SDS011;38480;52.724;6.436;2023-03-23T16:06:14;13.30;;;3.77;;
52586;SDS011;38480;52.724;6.436;2023-03-23T16:08:40;16.60;;;4.23;;
52586;SDS011;38480;52.724;6.436;2023-03-23T16:11:08;11.73;;;2.83;;
52586;SDS011;38480;52.724;6.436;2023-03-23T16:13:35;11.67;;;2.50;;
52586;SDS011;38480;52.724;6.436;2023-03-23T16:16:02;12.87;;;2.87;;
52586;SDS011;38480;52.724;6.436;2023-03-23T16:18:29;12.37;;;3.07;;
52586;SDS011;38480;52.724;6.436;2023-03-23T16:20:55;7.67;;;2.57;;
52586;SDS011;38480;52.724;6.436;2023-03-23T16:23:21;8.70;;;2.50;;
52586;SDS011;38480;52.724;6.436;2023-03-23T16:25:48;10.87;;;2.87;;
52586;SDS011;38480;52.724;6.436;2023-03-23T16:28:14;8.90;;;2.20;;
52586;SDS011;38480;52.724;6.436;2023-03-23T16:30:41;8.73;;;2.50;;
52586;SDS011;38480;52.724;6.436;2023-03-23T16:33:08;10.67;;;2.50;;
52586;SDS011;38480;52.724;6.436;2023-03-23T16:35:34;15.03;;;2.57;;
52586;SDS011;38480;52.724;6.436;2023-03-23T16:38:01;11.20;;;2.80;;
52586;SDS011;38480;52.724;6.436;2023-03-23T16:40:26;7.33;;;2.17;;
52586;SDS011;38480;52.724;6.436;2023-03-23T16:42:53;8.77;;;2.07;;
52586;SDS011;38480;52.724;6.436;2023-03-23T16:45:19;7.17;;;1.90;;
52586;SDS011;38480;52.724;6.436;2023-03-23T16:47:45;4.30;;;1.57;;
52586;SDS011;38480;52.724;6.436;2023-03-23T16:50:13;7.27;;;2.40;;
52586;SDS011;38480;52.724;6.436;2023-03-23T16:52:40;8.17;;;2.43;;
52586;SDS011;38480;52.724;6.436;2023-03-23T16:55:06;6.43;;;2.10;;
52586;SDS011;38480;52.724;6.436;2023-03-23T16:57:33;6.33;;;2.23;;
52586;SDS011;38480;52.724;6.436;2023-03-23T17:00:04;5.97;;;1.73;;